createdAt,value
2022-10-14T00:00:00.292Z,12.19
2022-10-14T00:01:00.274Z,12.19
2022-10-14T00:02:00.369Z,12.19
2022-10-14T00:03:00.268Z,12.20
2022-10-14T00:04:00.300Z,12.20
2022-10-14T00:05:00.247Z,12.20
2022-10-14T00:06:00.223Z,12.21
2022-10-14T00:07:00.240Z,12.21
2022-10-14T00:08:00.219Z,12.21
2022-10-14T00:09:00.209Z,12.22
2022-10-14T00:10:00.179Z,12.22
2022-10-14T00:11:00.174Z,12.22
2022-10-14T00:12:00.170Z,12.22
2022-10-14T00:13:00.141Z,12.23
2022-10-14T00:14:00.158Z,12.23
2022-10-14T00:15:00.116Z,12.23
2022-10-14T00:16:00.125Z,12.23
2022-10-14T00:17:00.133Z,12.23
2022-10-14T00:18:00.094Z,12.23
2022-10-14T00:19:00.125Z,12.24
2022-10-14T00:20:00.115Z,12.24
2022-10-14T00:21:00.039Z,12.24
2022-10-14T00:22:00.033Z,12.24
2022-10-14T00:23:00.030Z,12.25
2022-10-14T00:24:00.021Z,12.25
2022-10-14T00:25:00.003Z,12.25
2022-10-14T00:25:59.977Z,12.25
2022-10-14T00:27:00.021Z,12.25
2022-10-14T00:27:59.967Z,12.26
2022-10-14T00:28:59.971Z,12.26
2022-10-14T00:29:59.933Z,12.26
2022-10-14T00:30:59.926Z,12.26
2022-10-14T00:31:59.903Z,12.26
2022-10-14T00:32:59.925Z,12.26
2022-10-14T00:33:59.897Z,12.27
2022-10-14T00:34:59.878Z,12.27
2022-10-14T00:35:59.859Z,12.28
2022-10-14T00:36:59.861Z,12.28
2022-10-14T00:37:59.838Z,12.29
2022-10-14T00:38:59.829Z,12.29
2022-10-14T00:39:59.827Z,12.30
2022-10-14T00:40:59.807Z,12.31
2022-10-14T00:41:59.787Z,12.31
2022-10-14T00:42:59.795Z,12.32
2022-10-14T00:43:59.775Z,12.32
2022-10-14T00:44:59.770Z,12.33
2022-10-14T00:45:59.759Z,12.33
2022-10-14T00:46:59.749Z,12.33
2022-10-14T00:47:59.728Z,12.33
2022-10-14T00:48:59.708Z,12.33
2022-10-14T00:49:59.719Z,12.33
2022-10-14T00:50:59.683Z,12.33
2022-10-14T00:51:59.668Z,12.33
2022-10-14T00:52:59.662Z,12.33
2022-10-14T00:53:59.661Z,12.33
2022-10-14T00:54:59.656Z,12.33
2022-10-14T00:55:59.647Z,12.33
2022-10-14T00:56:59.621Z,12.33
2022-10-14T00:57:59.612Z,12.33
2022-10-14T00:58:59.606Z,12.33
2022-10-14T00:59:59.615Z,12.33
2022-10-14T01:00:59.641Z,12.33
2022-10-14T01:01:59.568Z,12.33
2022-10-14T01:02:59.543Z,12.33
2022-10-14T01:03:59.529Z,12.32
2022-10-14T01:04:59.521Z,12.32
2022-10-14T01:05:59.547Z,12.32
2022-10-14T01:06:59.496Z,12.31
2022-10-14T01:07:59.489Z,12.31
2022-10-14T01:08:59.494Z,12.31
2022-10-14T01:09:59.469Z,12.31
2022-10-14T01:10:59.463Z,12.31
2022-10-14T01:12:23.521Z,12.32
2022-10-14T01:13:00.423Z,12.32
2022-10-14T01:13:59.409Z,12.32
2022-10-14T01:14:59.405Z,12.33
2022-10-14T01:15:59.385Z,12.33
2022-10-14T01:16:59.425Z,12.33
2022-10-14T01:17:59.364Z,12.34
2022-10-14T01:18:59.392Z,12.34
2022-10-14T01:19:59.333Z,12.34
2022-10-14T01:20:59.324Z,12.34
2022-10-14T01:21:59.344Z,12.34
2022-10-14T01:22:59.329Z,12.34
2022-10-14T01:23:59.300Z,12.34
2022-10-14T01:24:59.292Z,12.34
2022-10-14T01:25:59.275Z,12.34
2022-10-14T01:26:59.263Z,12.34
2022-10-14T01:27:59.271Z,12.34
2022-10-14T01:28:59.339Z,12.34
2022-10-14T01:29:59.228Z,12.34
2022-10-14T01:30:59.202Z,12.34
2022-10-14T01:31:59.203Z,12.34
2022-10-14T01:32:59.201Z,12.34
2022-10-14T01:33:59.186Z,12.34
2022-10-14T01:34:59.242Z,12.35
2022-10-14T01:35:59.159Z,12.35
2022-10-14T01:36:59.162Z,12.35
2022-10-14T01:37:59.147Z,12.35
2022-10-14T01:38:59.147Z,12.35
2022-10-14T01:39:59.199Z,12.35
2022-10-14T01:40:59.114Z,12.35
2022-10-14T01:41:59.083Z,12.35
2022-10-14T01:42:59.076Z,12.35
2022-10-14T01:43:59.064Z,12.36
2022-10-14T01:44:59.114Z,12.36
2022-10-14T01:45:59.036Z,12.36
2022-10-14T01:46:59.026Z,12.37
2022-10-14T01:47:59.026Z,12.37
2022-10-14T01:48:59.027Z,12.38
2022-10-14T01:49:59.095Z,12.38
2022-10-14T01:50:58.977Z,12.38
2022-10-14T01:51:58.957Z,12.38
2022-10-14T01:52:58.945Z,12.38
2022-10-14T01:53:58.957Z,12.38
2022-10-14T01:54:59.016Z,12.38
2022-10-14T01:55:58.922Z,12.38
2022-10-14T01:56:58.908Z,12.39
2022-10-14T01:57:58.910Z,12.38
2022-10-14T01:58:58.906Z,12.38
2022-10-14T01:59:58.863Z,12.38
2022-10-14T02:00:58.884Z,12.38
2022-10-14T02:01:58.965Z,12.38
2022-10-14T02:02:58.834Z,12.38
2022-10-14T02:03:58.849Z,12.38
2022-10-14T02:04:58.943Z,12.38
2022-10-14T02:05:58.799Z,12.38
2022-10-14T02:06:58.797Z,12.38
2022-10-14T02:07:58.780Z,12.38
2022-10-14T02:08:58.781Z,12.37
2022-10-14T02:09:58.866Z,12.37
2022-10-14T02:11:02.133Z,12.37
2022-10-14T02:11:58.736Z,12.37
2022-10-14T02:12:58.709Z,12.37
2022-10-14T02:13:58.743Z,12.37
2022-10-14T02:14:58.687Z,12.36
2022-10-14T02:15:58.682Z,12.37
2022-10-14T02:16:58.679Z,12.37
2022-10-14T02:17:58.667Z,12.37
2022-10-14T02:18:58.677Z,12.37
2022-10-14T02:19:58.723Z,12.37
2022-10-14T02:20:58.631Z,12.37
2022-10-14T02:21:58.602Z,12.36
2022-10-14T02:22:58.595Z,12.36
2022-10-14T02:23:58.602Z,12.36
2022-10-14T02:24:58.692Z,12.36
2022-10-14T02:25:58.570Z,12.35
2022-10-14T02:26:58.584Z,12.35
2022-10-14T02:27:58.540Z,12.35
2022-10-14T02:28:58.570Z,12.35
2022-10-14T02:29:58.602Z,12.35
2022-10-14T02:30:58.510Z,12.35
2022-10-14T02:31:58.488Z,12.35
2022-10-14T02:32:58.480Z,12.34
2022-10-14T02:33:58.462Z,12.34
2022-10-14T02:34:58.498Z,12.34
2022-10-14T02:35:58.444Z,12.33
2022-10-14T02:36:58.440Z,12.33
2022-10-14T02:37:58.413Z,12.32
2022-10-14T02:38:58.414Z,12.32
2022-10-14T02:39:58.430Z,12.31
2022-10-14T02:40:58.386Z,12.31
2022-10-14T02:41:58.365Z,12.30
2022-10-14T02:42:58.361Z,12.30
2022-10-14T02:43:58.350Z,12.30
2022-10-14T02:44:58.348Z,12.29
2022-10-14T02:45:58.344Z,12.29
2022-10-14T02:46:58.325Z,12.29
2022-10-14T02:47:58.297Z,12.29
2022-10-14T02:48:58.293Z,12.29
2022-10-14T02:49:58.347Z,12.29
2022-10-14T02:50:58.293Z,12.29
2022-10-14T02:51:58.252Z,12.29
2022-10-14T02:52:58.263Z,12.29
2022-10-14T02:53:58.230Z,12.30
2022-10-14T02:54:58.250Z,12.30
2022-10-14T02:55:58.218Z,12.30
2022-10-14T02:56:58.215Z,12.30
2022-10-14T02:57:58.192Z,12.31
2022-10-14T02:58:58.177Z,12.31
2022-10-14T02:59:58.192Z,12.32
2022-10-14T03:00:58.157Z,12.32
2022-10-14T03:01:58.175Z,12.33
2022-10-14T03:02:58.127Z,12.33
2022-10-14T03:03:58.136Z,12.33
2022-10-14T03:04:58.137Z,12.33
2022-10-14T03:05:58.105Z,12.33
2022-10-14T03:06:58.119Z,12.34
2022-10-14T03:07:58.065Z,12.34
2022-10-14T03:08:58.065Z,12.35
2022-10-14T03:09:58.110Z,12.36
2022-10-14T03:10:58.056Z,12.36
2022-10-14T03:11:58.025Z,12.37
2022-10-14T03:12:58.038Z,12.38
2022-10-14T03:13:57.995Z,12.38
2022-10-14T03:14:57.991Z,12.39
2022-10-14T03:15:57.986Z,12.39
2022-10-14T03:16:57.984Z,12.39
2022-10-14T03:17:57.946Z,12.39
2022-10-14T03:18:57.948Z,12.40
2022-10-14T03:19:57.967Z,12.40
2022-10-14T03:20:57.920Z,12.40
2022-10-14T03:21:57.907Z,12.39
2022-10-14T03:22:57.890Z,12.39
2022-10-14T03:23:57.883Z,12.39
2022-10-14T03:24:57.898Z,12.38
2022-10-14T03:25:57.851Z,12.38
2022-10-14T03:26:57.856Z,12.37
2022-10-14T03:27:57.842Z,12.37
2022-10-14T03:28:57.902Z,12.36
2022-10-14T03:29:57.858Z,12.36
2022-10-14T03:30:57.826Z,12.36
2022-10-14T03:31:57.801Z,12.36
2022-10-14T03:32:57.780Z,12.36
2022-10-14T03:33:57.769Z,12.36
2022-10-14T03:34:57.751Z,12.36
2022-10-14T03:35:57.738Z,12.36
2022-10-14T03:36:57.719Z,12.36
2022-10-14T03:37:57.757Z,12.36
2022-10-14T03:38:57.721Z,12.36
2022-10-14T03:39:57.699Z,12.35
2022-10-14T03:40:57.675Z,12.35
2022-10-14T03:41:57.671Z,12.35
2022-10-14T03:42:57.649Z,12.35
2022-10-14T03:43:57.659Z,12.35
2022-10-14T03:44:57.647Z,12.34
2022-10-14T03:45:57.623Z,12.34
2022-10-14T03:46:57.626Z,12.34
2022-10-14T03:47:57.590Z,12.34
2022-10-14T03:48:57.603Z,12.34
2022-10-14T03:49:57.612Z,12.34
2022-10-14T03:50:57.551Z,12.35
2022-10-14T03:51:57.566Z,12.35
2022-10-14T03:52:57.545Z,12.35
2022-10-14T03:53:57.521Z,12.35
2022-10-14T03:54:57.549Z,12.35
2022-10-14T03:55:57.508Z,12.35
2022-10-14T03:56:57.496Z,12.35
2022-10-14T03:57:57.473Z,12.35
2022-10-14T03:58:57.482Z,12.36
2022-10-14T03:59:57.484Z,12.36
2022-10-14T04:00:57.444Z,12.36
2022-10-14T04:01:57.471Z,12.36
2022-10-14T04:02:57.422Z,12.36
2022-10-14T04:03:57.405Z,12.36
2022-10-14T04:05:00.860Z,12.36
2022-10-14T04:05:57.383Z,12.36
2022-10-14T04:06:57.368Z,12.36
2022-10-14T04:07:57.374Z,12.36
2022-10-14T04:08:57.332Z,12.36
2022-10-14T04:09:57.372Z,12.35
2022-10-14T04:10:57.318Z,12.35
2022-10-14T04:11:57.882Z,12.35
2022-10-14T04:12:57.302Z,12.36
2022-10-14T04:13:57.294Z,12.36
2022-10-14T04:14:57.298Z,12.36
2022-10-14T04:15:57.264Z,12.36
2022-10-14T04:16:57.252Z,12.37
2022-10-14T04:17:57.233Z,12.37
2022-10-14T04:18:57.237Z,12.37
2022-10-14T04:19:57.239Z,12.37
2022-10-14T04:20:57.249Z,12.37
2022-10-14T04:21:57.193Z,12.37
2022-10-14T04:22:57.174Z,12.37
2022-10-14T04:23:57.168Z,12.36
2022-10-14T04:24:57.189Z,12.36
2022-10-14T04:25:57.196Z,12.36
2022-10-14T04:26:57.147Z,12.36
2022-10-14T04:27:57.124Z,12.36
2022-10-14T04:28:57.174Z,12.36
2022-10-14T04:29:57.109Z,12.36
2022-10-14T04:30:57.129Z,12.37
2022-10-14T04:31:57.090Z,12.37
2022-10-14T04:32:57.064Z,12.38
2022-10-14T04:33:57.065Z,12.38
2022-10-14T04:34:57.035Z,12.38
2022-10-14T04:35:57.037Z,12.38
2022-10-14T04:36:57.050Z,12.38
2022-10-14T04:37:57.007Z,12.38
2022-10-14T04:38:56.985Z,12.39
2022-10-14T04:39:56.985Z,12.39
2022-10-14T04:40:56.975Z,12.39
2022-10-14T04:41:56.973Z,12.39
2022-10-14T04:42:56.941Z,12.39
2022-10-14T04:43:56.957Z,12.39
2022-10-14T04:44:56.931Z,12.40
2022-10-14T04:45:56.909Z,12.40
2022-10-14T04:46:56.918Z,12.39
2022-10-14T04:47:56.898Z,12.39
2022-10-14T04:48:56.887Z,12.39
2022-10-14T04:49:56.868Z,12.39
2022-10-14T04:50:56.857Z,12.39
2022-10-14T04:51:56.862Z,12.39
2022-10-14T04:52:56.849Z,12.39
2022-10-14T04:53:56.812Z,12.39
2022-10-14T04:54:56.808Z,12.39
2022-10-14T04:55:56.806Z,12.39
2022-10-14T04:56:56.787Z,12.39
2022-10-14T04:57:56.824Z,12.40
2022-10-14T04:58:56.759Z,12.40
2022-10-14T04:59:56.760Z,12.40
2022-10-14T05:00:56.731Z,12.40
2022-10-14T05:01:56.823Z,12.41
2022-10-14T05:02:56.714Z,12.41
2022-10-14T05:03:56.716Z,12.41
2022-10-14T05:04:56.689Z,12.41
2022-10-14T05:05:56.677Z,12.41
2022-10-14T05:06:56.654Z,12.41
2022-10-14T05:07:56.648Z,12.41
2022-10-14T05:08:56.659Z,12.42
2022-10-14T05:09:57.000Z,12.42
2022-10-14T05:10:56.615Z,12.42
2022-10-14T05:11:56.602Z,12.42
2022-10-14T05:12:56.583Z,12.42
2022-10-14T05:13:56.614Z,12.43
2022-10-14T05:14:56.570Z,12.43
2022-10-14T05:15:56.555Z,12.43
2022-10-14T05:16:56.540Z,12.43
2022-10-14T05:17:56.545Z,12.43
2022-10-14T05:18:56.551Z,12.43
2022-10-14T05:19:56.535Z,12.43
2022-10-14T05:20:56.493Z,12.43
2022-10-14T05:21:56.493Z,12.43
2022-10-14T05:22:56.475Z,12.43
2022-10-14T05:23:56.479Z,12.43
2022-10-14T05:24:56.454Z,12.43
2022-10-14T05:25:56.483Z,12.43
2022-10-14T05:26:56.501Z,12.43
2022-10-14T05:27:56.414Z,12.43
2022-10-14T05:28:56.468Z,12.43
2022-10-14T05:29:56.394Z,12.43
2022-10-14T05:30:56.385Z,12.43
2022-10-14T05:31:56.373Z,12.43
2022-10-14T05:32:56.378Z,12.43
2022-10-14T05:33:56.343Z,12.43
2022-10-14T05:34:56.342Z,12.43
2022-10-14T05:35:59.907Z,12.43
2022-10-14T05:36:56.302Z,12.43
2022-10-14T05:37:59.485Z,12.43
2022-10-14T05:38:57.304Z,12.44
2022-10-14T05:39:56.288Z,12.44
2022-10-14T05:40:56.266Z,12.44
2022-10-14T05:41:56.256Z,12.45
2022-10-14T05:42:56.249Z,12.45
2022-10-14T05:43:56.226Z,12.45
2022-10-14T05:44:56.224Z,12.45
2022-10-14T05:45:56.209Z,12.46
2022-10-14T05:46:56.187Z,12.46
2022-10-14T05:47:56.174Z,12.46
2022-10-14T05:48:56.172Z,12.47
2022-10-14T05:49:56.193Z,12.47
2022-10-14T05:50:56.152Z,12.47
2022-10-14T05:51:56.145Z,12.48
2022-10-14T05:52:56.141Z,12.48
2022-10-14T05:53:56.103Z,12.48
2022-10-14T05:54:56.159Z,12.49
2022-10-14T05:55:56.088Z,12.50
2022-10-14T05:56:56.091Z,12.50
2022-10-14T05:57:56.065Z,12.50
2022-10-14T05:58:56.071Z,12.51
2022-10-14T05:59:56.037Z,12.51
2022-10-14T06:00:56.033Z,12.52
2022-10-14T06:01:56.035Z,12.53
2022-10-14T06:02:56.026Z,12.53
2022-10-14T06:03:55.995Z,12.54
2022-10-14T06:04:55.979Z,12.55
2022-10-14T06:05:55.969Z,12.56
2022-10-14T06:06:55.948Z,12.56
2022-10-14T06:07:55.961Z,12.57
2022-10-14T06:08:55.946Z,12.57
2022-10-14T06:09:55.919Z,12.57
2022-10-14T06:10:55.922Z,12.58
2022-10-14T06:11:55.906Z,12.58
2022-10-14T06:12:55.882Z,12.59
2022-10-14T06:13:55.889Z,12.59
2022-10-14T06:14:55.888Z,12.60
2022-10-14T06:15:55.843Z,12.60
2022-10-14T06:16:55.836Z,12.61
2022-10-14T06:17:55.816Z,12.61
2022-10-14T06:18:55.838Z,12.62
2022-10-14T06:19:55.802Z,12.62
2022-10-14T06:20:55.780Z,12.63
2022-10-14T06:21:55.776Z,12.64
2022-10-14T06:22:55.759Z,12.64
2022-10-14T06:23:55.777Z,12.65
2022-10-14T06:24:58.302Z,12.65
2022-10-14T06:25:55.748Z,12.66
2022-10-14T06:26:55.720Z,12.66
2022-10-14T06:27:55.731Z,12.67
2022-10-14T06:28:55.785Z,12.68
2022-10-14T06:29:55.709Z,12.68
2022-10-14T06:30:55.672Z,12.69
2022-10-14T06:31:55.676Z,12.69
2022-10-14T06:32:55.640Z,12.69
2022-10-14T06:33:55.630Z,12.70
2022-10-14T06:34:55.618Z,12.70
2022-10-14T06:35:55.620Z,12.71
2022-10-14T06:36:58.584Z,12.71
2022-10-14T06:37:56.578Z,12.71
2022-10-14T06:38:55.590Z,12.71
2022-10-14T06:39:55.577Z,12.71
2022-10-14T06:40:55.553Z,12.72
2022-10-14T06:41:55.552Z,12.72
2022-10-14T06:42:55.541Z,12.72
2022-10-14T06:43:55.521Z,12.72
2022-10-14T06:44:55.495Z,12.72
2022-10-14T06:45:55.504Z,12.72
2022-10-14T06:46:55.491Z,12.73
2022-10-14T06:47:55.472Z,12.73
2022-10-14T06:48:55.465Z,12.74
2022-10-14T06:49:55.443Z,12.74
2022-10-14T06:50:55.458Z,12.74
2022-10-14T06:51:55.478Z,12.75
2022-10-14T06:52:55.407Z,12.75
2022-10-14T06:53:55.410Z,12.76
2022-10-14T06:54:55.379Z,12.76
2022-10-14T06:55:55.377Z,12.77
2022-10-14T06:56:55.354Z,12.77
2022-10-14T06:57:55.362Z,12.78
2022-10-14T06:58:55.355Z,12.79
2022-10-14T06:59:55.334Z,12.79
2022-10-14T07:00:55.318Z,12.79
2022-10-14T07:01:55.362Z,12.80
2022-10-14T07:02:55.298Z,12.80
2022-10-14T07:03:56.743Z,12.81
2022-10-14T07:04:55.264Z,12.81
2022-10-14T07:05:55.255Z,12.82
2022-10-14T07:06:55.245Z,12.82
2022-10-14T07:07:55.258Z,12.83
2022-10-14T07:08:55.244Z,12.83
2022-10-14T07:09:55.228Z,12.84
2022-10-14T07:10:55.208Z,12.84
2022-10-14T07:11:55.191Z,12.84
2022-10-14T07:12:55.174Z,12.84
2022-10-14T07:13:55.186Z,12.85
2022-10-14T07:14:55.162Z,12.85
2022-10-14T07:15:55.135Z,12.86
2022-10-14T07:16:55.140Z,12.86
2022-10-14T07:17:55.111Z,12.87
2022-10-14T07:18:55.116Z,12.88
2022-10-14T07:19:55.128Z,12.88
2022-10-14T07:20:55.075Z,12.89
2022-10-14T07:21:55.065Z,12.89
2022-10-14T07:22:55.054Z,12.89
2022-10-14T07:23:55.046Z,12.89
2022-10-14T07:24:55.080Z,12.90
2022-10-14T07:25:55.026Z,12.91
2022-10-14T07:26:55.065Z,12.91
2022-10-14T07:27:54.999Z,12.92
2022-10-14T07:28:55.049Z,12.92
2022-10-14T07:29:54.988Z,12.93
2022-10-14T07:30:54.996Z,12.94
2022-10-14T07:31:54.953Z,12.95
2022-10-14T07:32:54.940Z,12.95
2022-10-14T07:33:54.947Z,12.95
2022-10-14T07:34:54.918Z,12.96
2022-10-14T07:35:54.912Z,12.96
2022-10-14T07:36:54.906Z,12.96
2022-10-14T07:37:54.878Z,12.97
2022-10-14T07:38:54.882Z,12.97
2022-10-14T07:39:54.887Z,12.98
2022-10-14T07:40:54.849Z,12.98
2022-10-14T07:41:54.855Z,12.99
2022-10-14T07:42:54.851Z,12.99
2022-10-14T07:43:54.814Z,13.00
2022-10-14T07:44:54.800Z,13.00
2022-10-14T07:45:54.787Z,13.01
2022-10-14T07:46:54.792Z,13.02
2022-10-14T07:47:54.760Z,13.03
2022-10-14T07:48:56.994Z,13.03
2022-10-14T07:49:54.750Z,13.04
2022-10-14T07:50:54.727Z,13.05
2022-10-14T07:51:54.726Z,13.05
2022-10-14T07:52:57.767Z,13.06
2022-10-14T07:53:55.719Z,13.06
2022-10-14T07:54:54.681Z,13.07
2022-10-14T07:55:54.715Z,13.08
2022-10-14T07:56:54.680Z,13.09
2022-10-14T07:57:54.642Z,13.09
2022-10-14T07:58:54.650Z,13.10
2022-10-14T07:59:54.663Z,13.11
2022-10-14T08:00:54.601Z,13.12
2022-10-14T08:01:54.735Z,13.13
2022-10-14T08:02:54.617Z,13.14
2022-10-14T08:03:54.579Z,13.15
2022-10-14T08:04:54.593Z,13.17
2022-10-14T08:05:54.589Z,13.19
2022-10-14T08:06:54.569Z,13.21
2022-10-14T08:07:54.582Z,13.23
2022-10-14T08:08:54.538Z,13.25
2022-10-14T08:09:54.513Z,13.27
2022-10-14T08:10:54.493Z,13.29
2022-10-14T08:11:54.478Z,13.31
2022-10-14T08:12:54.461Z,13.33
2022-10-14T08:13:54.479Z,13.35
2022-10-14T08:14:54.446Z,13.37
2022-10-14T08:15:54.443Z,13.38
2022-10-14T08:16:54.410Z,13.39
2022-10-14T08:17:54.410Z,13.40
2022-10-14T08:18:54.401Z,13.42
2022-10-14T08:19:54.411Z,13.43
2022-10-14T08:20:54.376Z,13.44
2022-10-14T08:21:54.363Z,13.45
2022-10-14T08:22:54.348Z,13.47
2022-10-14T08:23:54.359Z,13.48
2022-10-14T08:24:54.356Z,13.49
2022-10-14T08:25:54.324Z,13.50
2022-10-14T08:26:54.304Z,13.51
2022-10-14T08:27:54.303Z,13.53
2022-10-14T08:28:54.599Z,13.54
2022-10-14T08:29:54.288Z,13.55
2022-10-14T08:30:54.258Z,13.55
2022-10-14T08:31:54.247Z,13.56
2022-10-14T08:32:54.230Z,13.56
2022-10-14T08:33:54.232Z,13.56
2022-10-14T08:34:54.225Z,13.57
2022-10-14T08:35:54.377Z,13.57
2022-10-14T08:36:54.190Z,13.57
2022-10-14T08:37:54.177Z,13.58
2022-10-14T08:38:54.179Z,13.59
2022-10-14T08:39:54.199Z,13.59
2022-10-14T08:40:55.825Z,13.60
2022-10-14T08:41:54.125Z,13.61
2022-10-14T08:42:54.116Z,13.61
2022-10-14T08:43:54.105Z,13.61
2022-10-14T08:44:54.110Z,13.62
2022-10-14T08:45:54.095Z,13.62
2022-10-14T08:46:54.078Z,13.62
2022-10-14T08:47:54.058Z,13.63
2022-10-14T08:48:54.054Z,13.64
2022-10-14T08:49:54.068Z,13.65
2022-10-14T08:50:54.018Z,13.66
2022-10-14T08:51:54.007Z,13.67
2022-10-14T08:52:54.001Z,13.67
2022-10-14T08:53:53.993Z,13.67
2022-10-14T08:54:53.977Z,13.67
2022-10-14T08:55:53.989Z,13.68
2022-10-14T08:56:53.960Z,13.68
2022-10-14T08:57:53.939Z,13.69
2022-10-14T08:58:53.947Z,13.69
2022-10-14T08:59:53.917Z,13.70
2022-10-14T09:00:53.929Z,13.71
2022-10-14T09:01:53.900Z,13.72
2022-10-14T09:02:53.930Z,13.73
2022-10-14T09:03:53.881Z,13.73
2022-10-14T09:04:53.858Z,13.75
2022-10-14T09:05:53.850Z,13.76
2022-10-14T09:06:53.860Z,13.77
2022-10-14T09:07:53.819Z,13.79
2022-10-14T09:08:53.829Z,13.80
2022-10-14T09:09:53.802Z,13.81
2022-10-14T09:10:53.806Z,13.83
2022-10-14T09:11:53.807Z,13.84
2022-10-14T09:12:53.771Z,13.86
2022-10-14T09:13:53.759Z,13.87
2022-10-14T09:14:53.751Z,13.89
2022-10-14T09:15:53.750Z,13.91
2022-10-14T09:16:54.241Z,13.93
2022-10-14T09:17:53.788Z,13.95
2022-10-14T09:18:54.825Z,13.96
2022-10-14T09:19:53.691Z,13.97
2022-10-14T09:20:53.684Z,13.98
2022-10-14T09:21:53.854Z,14.00
2022-10-14T09:22:53.681Z,14.01
2022-10-14T09:23:53.642Z,14.02
2022-10-14T09:24:53.642Z,14.04
2022-10-14T09:25:53.622Z,14.05
2022-10-14T09:26:53.657Z,14.06
2022-10-14T09:27:53.613Z,14.08
2022-10-14T09:28:53.622Z,14.10
2022-10-14T09:29:53.564Z,14.11
2022-10-14T09:30:53.571Z,14.13
2022-10-14T09:31:53.543Z,14.15
2022-10-14T09:32:53.580Z,14.16
2022-10-14T09:33:53.535Z,14.18
2022-10-14T09:34:53.516Z,14.19
2022-10-14T09:35:53.574Z,14.20
2022-10-14T09:36:53.576Z,14.21
2022-10-14T09:37:53.504Z,14.23
2022-10-14T09:38:53.483Z,14.24
2022-10-14T09:39:53.453Z,14.25
2022-10-14T09:40:53.454Z,14.25
2022-10-14T09:41:53.439Z,14.26
2022-10-14T09:42:53.439Z,14.27
2022-10-14T09:43:53.407Z,14.28
2022-10-14T09:44:53.434Z,14.29
2022-10-14T09:45:53.406Z,14.30
2022-10-14T09:46:53.385Z,14.32
2022-10-14T09:47:53.385Z,14.33
2022-10-14T09:48:53.356Z,14.34
2022-10-14T09:49:53.336Z,14.35
2022-10-14T09:50:53.336Z,14.36
2022-10-14T09:51:53.328Z,14.37
2022-10-14T09:52:53.306Z,14.37
2022-10-14T09:53:53.310Z,14.38
2022-10-14T09:54:53.288Z,14.39
2022-10-14T09:55:53.264Z,14.39
2022-10-14T09:56:53.263Z,14.40
2022-10-14T09:57:53.247Z,14.41
2022-10-14T09:58:53.255Z,14.41
2022-10-14T09:59:53.217Z,14.42
2022-10-14T10:00:53.213Z,14.42
2022-10-14T10:01:53.200Z,14.43
2022-10-14T10:02:53.201Z,14.44
2022-10-14T10:03:53.285Z,14.45
2022-10-14T10:04:53.224Z,14.45
2022-10-14T10:05:53.164Z,14.46
2022-10-14T10:06:53.178Z,14.47
2022-10-14T10:07:53.151Z,14.49
2022-10-14T10:08:53.152Z,14.51
2022-10-14T10:09:53.106Z,14.53
2022-10-14T10:10:53.097Z,14.54
2022-10-14T10:11:53.089Z,14.56
2022-10-14T10:12:53.084Z,14.57
2022-10-14T10:13:53.069Z,14.59
2022-10-14T10:14:53.049Z,14.60
2022-10-14T10:16:00.099Z,14.62
2022-10-14T10:16:53.035Z,14.63
2022-10-14T10:17:53.054Z,14.65
2022-10-14T10:18:53.023Z,14.66
2022-10-14T10:19:52.993Z,14.67
2022-10-14T10:20:52.984Z,14.67
2022-10-14T10:21:52.965Z,14.68
2022-10-14T10:22:52.963Z,14.68
2022-10-14T10:23:52.958Z,14.68
2022-10-14T10:24:52.959Z,14.69
2022-10-14T10:25:52.924Z,14.69
2022-10-14T10:26:52.918Z,14.69
2022-10-14T10:27:52.894Z,14.70
2022-10-14T10:28:52.961Z,14.70
2022-10-14T10:29:52.893Z,14.71
2022-10-14T10:30:52.868Z,14.71
2022-10-14T10:31:52.854Z,14.72
2022-10-14T10:32:52.838Z,14.72
2022-10-14T10:33:52.818Z,14.73
2022-10-14T10:34:52.837Z,14.73
2022-10-14T10:35:52.796Z,14.73
2022-10-14T10:36:52.815Z,14.73
2022-10-14T10:37:52.777Z,14.74
2022-10-14T10:38:52.763Z,14.75
2022-10-14T10:39:52.758Z,14.76
2022-10-14T10:40:52.760Z,14.77
2022-10-14T10:41:52.727Z,14.78
2022-10-14T10:42:52.724Z,14.79
2022-10-14T10:43:52.708Z,14.80
2022-10-14T10:44:52.734Z,14.81
2022-10-14T10:45:52.723Z,14.82
2022-10-14T10:46:52.728Z,14.84
2022-10-14T10:47:52.675Z,14.85
2022-10-14T10:48:52.685Z,14.86
2022-10-14T10:49:52.721Z,14.87
2022-10-14T10:50:52.661Z,14.88
2022-10-14T10:51:52.654Z,14.89
2022-10-14T10:52:52.645Z,14.91
2022-10-14T10:53:52.625Z,14.92
2022-10-14T10:54:52.626Z,14.93
2022-10-14T10:55:52.584Z,14.94
2022-10-14T10:56:52.604Z,14.94
2022-10-14T10:57:52.581Z,14.95
2022-10-14T10:58:52.568Z,14.96
2022-10-14T10:59:52.547Z,14.98
2022-10-14T11:00:52.557Z,14.99
2022-10-14T11:01:52.559Z,15.01
2022-10-14T11:02:52.556Z,15.02
2022-10-14T11:03:52.496Z,15.04
2022-10-14T11:04:52.503Z,15.06
2022-10-14T11:05:52.479Z,15.08
2022-10-14T11:06:52.475Z,15.10
2022-10-14T11:07:52.466Z,15.12
2022-10-14T11:08:52.451Z,15.15
2022-10-14T11:09:52.445Z,15.17
2022-10-14T11:10:52.434Z,15.19
2022-10-14T11:11:52.403Z,15.21
2022-10-14T11:12:52.411Z,15.23
2022-10-14T11:13:52.403Z,15.25
2022-10-14T11:14:52.390Z,15.27
2022-10-14T11:15:52.358Z,15.28
2022-10-14T11:16:52.381Z,15.30
2022-10-14T11:17:52.331Z,15.31
2022-10-14T11:18:52.356Z,15.33
2022-10-14T11:19:52.349Z,15.34
2022-10-14T11:20:52.319Z,15.34
2022-10-14T11:21:52.279Z,15.35
2022-10-14T11:22:52.280Z,15.35
2022-10-14T11:23:52.278Z,15.34
2022-10-14T11:24:52.261Z,15.34
2022-10-14T11:25:52.237Z,15.34
2022-10-14T11:26:52.245Z,15.33
2022-10-14T11:27:52.220Z,15.33
2022-10-14T11:28:52.270Z,15.32
2022-10-14T11:29:52.183Z,15.32
2022-10-14T11:30:52.158Z,15.31
2022-10-14T11:31:52.138Z,15.30
2022-10-14T11:32:52.129Z,15.30
2022-10-14T11:33:52.124Z,15.29
2022-10-14T11:34:52.123Z,15.29
2022-10-14T11:35:52.099Z,15.29
2022-10-14T11:36:52.086Z,15.29
2022-10-14T11:37:52.073Z,15.28
2022-10-14T11:38:52.076Z,15.27
2022-10-14T11:39:52.061Z,15.26
2022-10-14T11:40:52.045Z,15.25
2022-10-14T11:41:52.024Z,15.24
2022-10-14T11:42:52.024Z,15.24
2022-10-14T11:43:51.997Z,15.23
2022-10-14T11:44:51.993Z,15.23
2022-10-14T11:45:51.998Z,15.22
2022-10-14T11:46:51.967Z,15.22
2022-10-14T11:47:51.947Z,15.21
2022-10-14T11:48:51.968Z,15.21
2022-10-14T11:49:51.924Z,15.21
2022-10-14T11:50:51.928Z,15.20
2022-10-14T11:51:51.905Z,15.20
2022-10-14T11:52:51.903Z,15.19
2022-10-14T11:53:51.897Z,15.18
2022-10-14T11:54:51.870Z,15.17
2022-10-14T11:55:51.848Z,15.15
2022-10-14T11:56:51.848Z,15.13
2022-10-14T11:57:51.840Z,15.12
2022-10-14T11:58:51.827Z,15.11
2022-10-14T11:59:51.808Z,15.10
2022-10-14T12:00:51.808Z,15.09
2022-10-14T12:01:51.812Z,15.08
2022-10-14T12:02:51.836Z,15.07
2022-10-14T12:03:51.758Z,15.05
2022-10-14T12:04:51.748Z,15.04
2022-10-14T12:05:51.745Z,15.02
2022-10-14T12:06:51.808Z,15.01
2022-10-14T12:07:51.737Z,15.00
2022-10-14T12:08:51.706Z,14.98
2022-10-14T12:09:55.805Z,14.97
2022-10-14T12:10:52.681Z,14.97
2022-10-14T12:11:51.670Z,14.96
2022-10-14T12:12:51.670Z,14.96
2022-10-14T12:13:51.641Z,14.96
2022-10-14T12:14:51.631Z,14.95
2022-10-14T12:15:51.621Z,14.95
2022-10-14T12:16:51.600Z,14.94
2022-10-14T12:17:51.611Z,14.93
2022-10-14T12:18:51.587Z,14.93
2022-10-14T12:19:51.581Z,14.92
2022-10-14T12:20:51.561Z,14.91
2022-10-14T12:21:51.549Z,14.90
2022-10-14T12:22:51.562Z,14.90
2022-10-14T12:23:51.519Z,14.90
2022-10-14T12:24:51.514Z,14.89
2022-10-14T12:25:51.497Z,14.89
2022-10-14T12:26:51.490Z,14.89
2022-10-14T12:27:51.491Z,14.88
2022-10-14T12:28:53.715Z,14.88
2022-10-14T12:29:51.455Z,14.88
2022-10-14T12:30:51.455Z,14.88
2022-10-14T12:31:51.443Z,14.88
2022-10-14T12:32:51.452Z,14.88
2022-10-14T12:33:51.417Z,14.89
2022-10-14T12:34:51.432Z,14.89
2022-10-14T12:35:51.385Z,14.89
2022-10-14T12:36:51.403Z,14.90
2022-10-14T12:37:51.411Z,14.90
2022-10-14T12:38:51.386Z,14.91
2022-10-14T12:39:51.346Z,14.91
2022-10-14T12:40:51.343Z,14.91
2022-10-14T12:41:51.315Z,14.91
2022-10-14T12:42:51.330Z,14.92
2022-10-14T12:43:52.309Z,14.93
2022-10-14T12:44:51.293Z,14.93
2022-10-14T12:45:51.278Z,14.93
2022-10-14T12:46:51.313Z,14.94
2022-10-14T12:47:51.288Z,14.95
2022-10-14T12:48:51.251Z,14.95
2022-10-14T12:49:51.236Z,14.96
2022-10-14T12:50:51.235Z,14.96
2022-10-14T12:51:51.217Z,14.97